createdAt,value
2018-05-11T00:01:02.064Z,13.70
2018-05-11T00:05:04.604Z,13.70
2018-05-11T00:09:07.905Z,13.60
2018-05-11T00:13:11.212Z,13.60
2018-05-11T00:17:14.503Z,13.60
2018-05-11T00:21:17.036Z,13.60
2018-05-11T00:25:19.571Z,13.60
2018-05-11T00:29:22.889Z,13.60
2018-05-11T00:33:25.495Z,13.50
2018-05-11T00:37:28.038Z,13.50
2018-05-11T00:41:31.360Z,13.50
2018-05-11T00:45:34.650Z,13.50
2018-05-11T00:49:37.957Z,13.50
2018-05-11T00:53:41.311Z,13.40
2018-05-11T00:57:43.842Z,13.40
2018-05-11T01:01:47.142Z,13.40
2018-05-11T01:05:50.415Z,13.40
2018-05-11T01:09:53.004Z,13.30
2018-05-11T01:13:55.571Z,13.30
2018-05-11T01:17:58.130Z,13.40
2018-05-11T01:22:00.680Z,13.30
2018-05-11T01:26:03.243Z,13.40
2018-05-11T01:30:05.793Z,13.40
2018-05-11T01:34:08.437Z,13.40
2018-05-11T01:38:10.973Z,13.40
2018-05-11T01:42:13.510Z,13.50
2018-05-11T01:46:16.028Z,13.50
2018-05-11T01:50:18.564Z,13.50
2018-05-11T01:54:21.104Z,13.50
2018-05-11T01:58:23.644Z,13.60
2018-05-11T02:02:26.192Z,13.60
2018-05-11T02:06:28.724Z,13.60
2018-05-11T02:10:32.027Z,13.60
2018-05-11T02:14:35.337Z,13.60
2018-05-11T02:18:38.643Z,13.60
2018-05-11T02:22:41.196Z,13.50
2018-05-11T02:26:43.716Z,13.60
2018-05-11T02:30:47.031Z,13.60
2018-05-11T02:34:49.563Z,13.50
2018-05-11T02:38:52.108Z,13.60
2018-05-11T02:42:55.035Z,13.60
2018-05-11T02:46:58.516Z,13.60
2018-05-11T02:51:01.055Z,13.60
2018-05-11T02:55:04.362Z,13.60
2018-05-11T02:59:07.690Z,13.60
2018-05-11T03:03:10.224Z,13.50
2018-05-11T03:07:12.774Z,13.60
2018-05-11T03:11:15.292Z,13.60
2018-05-11T03:15:17.823Z,13.60
2018-05-11T03:19:20.379Z,13.60
2018-05-11T03:23:22.920Z,13.60
2018-05-11T03:27:25.464Z,13.60
2018-05-11T03:31:28.754Z,13.60
2018-05-11T03:35:31.297Z,13.50
2018-05-11T03:39:33.836Z,13.60
2018-05-11T03:43:36.371Z,13.60
2018-05-11T03:47:38.967Z,13.60
2018-05-11T03:51:41.495Z,13.50
2018-05-11T03:55:44.824Z,13.60
2018-05-11T03:59:47.373Z,13.50
2018-05-11T04:04:01.834Z,13.50
2018-05-11T04:12:38.476Z,13.50
2018-05-11T04:16:41.008Z,13.50
2018-05-11T04:20:43.563Z,13.60
2018-05-11T04:24:46.115Z,13.50
2018-05-11T04:28:49.424Z,13.60
2018-05-11T04:32:51.984Z,13.50
2018-05-11T04:36:54.500Z,13.50
2018-05-11T04:40:57.036Z,13.50
2018-05-11T04:44:59.577Z,13.50
2018-05-11T04:49:02.134Z,13.50
2018-05-11T04:53:05.412Z,13.50
2018-05-11T04:57:07.956Z,13.40
2018-05-11T05:01:10.491Z,13.50
2018-05-11T05:05:13.028Z,13.50
2018-05-11T05:09:15.568Z,13.50
2018-05-11T05:13:18.863Z,13.50
2018-05-11T05:17:21.401Z,13.50
2018-05-11T05:21:23.934Z,13.50
2018-05-11T05:25:26.471Z,13.50
2018-05-11T05:29:29.027Z,13.60
2018-05-11T05:33:32.388Z,13.50
2018-05-11T05:37:34.903Z,13.50
2018-05-11T05:41:39.062Z,13.50
2018-05-11T05:45:41.600Z,13.50
2018-05-11T05:49:44.160Z,13.50
2018-05-11T05:53:46.693Z,13.50
2018-05-11T05:57:49.986Z,13.50
2018-05-11T06:01:53.283Z,13.50
2018-05-11T06:05:55.823Z,13.40
2018-05-11T06:09:58.647Z,13.50
2018-05-11T06:14:01.200Z,13.50
2018-05-11T06:18:03.741Z,13.50
2018-05-11T06:22:07.079Z,13.60
2018-05-11T06:26:09.603Z,13.50
2018-05-11T06:30:12.149Z,13.60
2018-05-11T06:34:14.866Z,13.60
2018-05-11T06:38:17.375Z,13.70
2018-05-11T06:42:19.911Z,13.80
2018-05-11T06:46:22.448Z,13.80
2018-05-11T06:50:24.983Z,13.90
2018-05-11T06:54:27.513Z,13.90
2018-05-11T06:58:30.803Z,14.00
2018-05-11T07:02:33.341Z,13.90
2018-05-11T07:06:35.882Z,14.10
2018-05-11T07:10:38.423Z,14.10
2018-05-11T07:14:40.955Z,14.30
2018-05-11T07:18:44.271Z,14.50
2018-05-11T07:22:47.740Z,14.60
2018-05-11T07:26:50.279Z,14.50
2018-05-11T07:30:52.816Z,14.70
2018-05-11T07:34:55.394Z,14.80
2018-05-11T07:38:57.899Z,14.90
2018-05-11T07:43:00.452Z,15.10
2018-05-11T07:47:02.995Z,15.20
2018-05-11T07:51:05.536Z,15.30
2018-05-11T07:55:08.076Z,15.50
2018-05-11T07:59:10.604Z,15.60
2018-05-11T08:03:13.148Z,15.70
2018-05-11T08:07:15.691Z,15.70
2018-05-11T08:11:18.236Z,15.80
2018-05-11T08:15:20.787Z,15.80
2018-05-11T08:19:24.966Z,15.90
2018-05-11T08:23:32.451Z,15.80
2018-05-11T08:27:34.988Z,16.00
2018-05-11T08:31:38.364Z,16.30
2018-05-11T08:35:40.904Z,16.20
2018-05-11T08:39:43.439Z,16.40
2018-05-11T08:43:45.954Z,16.50
2018-05-11T08:47:49.255Z,16.70
2018-05-11T08:51:52.560Z,16.70
2018-05-11T08:55:55.142Z,16.70
2018-05-11T08:59:57.656Z,16.80
2018-05-11T09:04:00.180Z,16.90
2018-05-11T09:08:02.724Z,17.10
2018-05-11T09:12:05.329Z,17.20
2018-05-11T09:16:08.581Z,17.70
2018-05-11T09:20:11.887Z,17.90
2018-05-11T09:24:15.915Z,18.10
2018-05-11T09:28:18.457Z,18.10
2018-05-11T09:32:21.029Z,18.30
2018-05-11T09:36:23.555Z,18.50
2018-05-11T09:40:27.049Z,18.80
2018-05-11T09:44:29.560Z,18.80
2018-05-11T09:48:32.096Z,19.00
2018-05-11T09:52:34.632Z,19.10
2018-05-11T09:56:37.163Z,19.20
2018-05-11T10:00:39.767Z,19.30
2018-05-11T10:04:42.244Z,19.50
2018-05-11T10:08:45.652Z,19.60
2018-05-11T10:12:48.975Z,19.90
2018-05-11T10:16:52.300Z,20.10
2018-05-11T10:20:54.870Z,20.00
2018-05-11T10:24:57.412Z,20.20
2018-05-11T10:28:59.970Z,20.40
2018-05-11T10:33:02.516Z,20.60
2018-05-11T10:37:05.811Z,21.00
2018-05-11T10:41:08.352Z,20.90
2018-05-11T10:45:10.871Z,21.20
2018-05-11T10:49:13.427Z,21.40
2018-05-11T10:53:16.728Z,21.60
2018-05-11T10:57:19.258Z,21.60
2018-05-11T11:01:21.794Z,21.70
2018-05-11T11:05:24.346Z,21.70
2018-05-11T11:09:26.888Z,21.70
2018-05-11T11:13:29.435Z,21.60
2018-05-11T11:17:31.980Z,21.60
2018-05-11T11:21:34.515Z,21.40
2018-05-11T11:25:37.052Z,21.30
2018-05-11T11:29:39.582Z,21.30
2018-05-11T11:33:42.943Z,21.30
2018-05-11T11:37:46.239Z,21.40
2018-05-11T11:41:48.774Z,21.40
2018-05-11T11:45:51.323Z,21.50
2018-05-11T11:49:54.601Z,21.60
2018-05-11T11:53:57.251Z,21.50
2018-05-11T11:57:59.796Z,21.60
2018-05-11T12:02:03.273Z,21.70
2018-05-11T12:06:05.667Z,21.60
2018-05-11T12:10:08.198Z,21.70
2018-05-11T12:14:10.734Z,21.80
2018-05-11T12:18:13.266Z,21.90
2018-05-11T12:22:15.805Z,22.10
2018-05-11T12:26:18.358Z,22.30
2018-05-11T12:30:20.872Z,22.60
2018-05-11T12:34:23.412Z,22.80
2018-05-11T12:42:34.524Z,23.40
2018-05-11T12:46:37.138Z,23.30
2018-05-11T12:50:39.624Z,23.50
2018-05-11T12:54:42.175Z,23.50
2018-05-11T12:58:44.721Z,23.50
2018-05-11T13:02:47.260Z,23.40
2018-05-11T13:06:49.819Z,23.30
2018-05-11T13:10:52.339Z,23.10
2018-05-11T13:14:54.879Z,23.00
2018-05-11T13:18:57.427Z,22.90
2018-05-11T13:22:59.971Z,22.70
2018-05-11T13:27:02.515Z,22.60
2018-05-11T13:31:05.037Z,22.40
2018-05-11T13:35:07.576Z,22.30
2018-05-11T13:39:10.103Z,22.10
2018-05-11T13:43:12.645Z,22.00
2018-05-11T13:47:15.157Z,21.90
2018-05-11T13:51:18.565Z,21.70
2018-05-11T13:55:21.107Z,21.60
2018-05-11T13:59:23.654Z,21.60
2018-05-11T14:03:26.191Z,21.60
2018-05-11T14:07:28.701Z,21.60
2018-05-11T14:11:31.240Z,21.60
2018-05-11T14:15:33.792Z,21.60
2018-05-11T14:19:36.332Z,21.50
2018-05-11T14:23:38.844Z,21.50
2018-05-11T14:27:41.382Z,21.50
2018-05-11T14:31:43.920Z,21.60
2018-05-11T14:35:46.447Z,21.70
2018-05-11T14:39:48.979Z,21.80
2018-05-11T14:43:52.256Z,22.30
2018-05-11T14:47:55.567Z,22.50
2018-05-11T14:51:58.116Z,22.50
2018-05-11T14:56:00.643Z,22.60
2018-05-11T15:00:03.935Z,22.90
2018-05-11T15:04:06.480Z,22.80
2018-05-11T15:08:09.023Z,23.00
2018-05-11T15:12:12.328Z,23.30
2018-05-11T15:16:14.864Z,23.20
2018-05-11T15:20:17.417Z,23.40
2018-05-11T15:24:19.932Z,23.40
2018-05-11T15:28:22.470Z,23.40
2018-05-11T15:32:25.016Z,23.50
2018-05-11T15:36:27.557Z,23.60
2018-05-11T15:40:30.168Z,23.70
2018-05-11T15:44:33.425Z,24.30
2018-05-11T15:48:36.727Z,24.60
2018-05-11T15:52:39.259Z,24.50
2018-05-11T15:56:41.820Z,24.70
2018-05-11T16:00:44.351Z,24.80
2018-05-11T16:04:46.931Z,24.80
2018-05-11T16:08:49.463Z,24.60
2018-05-11T16:12:52.129Z,24.50
2018-05-11T16:16:55.328Z,24.30
2018-05-11T16:20:58.599Z,24.30
2018-05-11T16:25:01.129Z,24.30
2018-05-11T16:29:03.700Z,24.50
2018-05-11T16:33:07.000Z,24.70
2018-05-11T16:37:10.362Z,24.80
2018-05-11T16:41:12.877Z,24.70
2018-05-11T16:45:15.421Z,24.70
2018-05-11T16:49:17.979Z,24.70
2018-05-11T16:53:20.553Z,24.50
2018-05-11T16:57:23.866Z,24.10
2018-05-11T17:01:26.396Z,24.00
2018-05-11T17:05:28.940Z,23.90
2018-05-11T17:09:31.496Z,23.60
2018-05-11T17:13:34.044Z,23.40
2018-05-11T17:17:36.576Z,23.20
2018-05-11T17:21:39.864Z,22.80
2018-05-11T17:25:42.407Z,22.80
2018-05-11T17:29:44.948Z,22.70
2018-05-11T17:33:48.265Z,22.30
2018-05-11T17:37:50.876Z,22.30
2018-05-11T17:41:53.415Z,22.20
2018-05-11T17:45:55.944Z,22.00
2018-05-11T17:49:58.485Z,21.90
2018-05-11T17:54:01.025Z,21.70
2018-05-11T17:58:03.565Z,21.60
2018-05-11T18:02:06.843Z,21.30
2018-05-11T18:06:09.383Z,21.20
2018-05-11T18:10:11.999Z,21.10
2018-05-11T18:14:15.234Z,20.80
2018-05-11T18:18:18.531Z,20.70
2018-05-11T18:22:21.051Z,20.60
2018-05-11T18:26:23.579Z,20.60
2018-05-11T18:30:26.112Z,20.50
2018-05-11T18:34:28.659Z,20.40
2018-05-11T18:38:31.191Z,20.30
2018-05-11T18:42:33.708Z,20.20
2018-05-11T18:46:36.256Z,20.10
2018-05-11T18:50:38.805Z,20.00
2018-05-11T18:54:41.730Z,19.80
2018-05-11T18:58:43.906Z,19.70
2018-05-11T19:02:46.432Z,19.60
2018-05-11T19:06:48.964Z,19.50
2018-05-11T19:10:51.492Z,19.40
2018-05-11T19:14:54.017Z,19.30
2018-05-11T19:18:56.550Z,19.20
2018-05-11T19:22:59.068Z,19.00
2018-05-11T19:27:01.608Z,18.90
2018-05-11T19:31:04.143Z,18.90
2018-05-11T19:35:06.681Z,18.80
2018-05-11T19:39:09.216Z,18.70
2018-05-11T19:43:11.727Z,18.60
2018-05-11T19:47:15.029Z,18.50
2018-05-11T19:51:18.324Z,18.40
2018-05-11T19:55:21.619Z,18.40
2018-05-11T19:59:24.952Z,18.40
2018-05-11T20:03:27.935Z,18.30
2018-05-11T20:07:31.207Z,18.30
2018-05-11T20:11:33.742Z,18.20
2018-05-11T20:15:36.275Z,18.20
2018-05-11T20:19:38.806Z,18.20
2018-05-11T20:23:41.387Z,18.20
2018-05-11T20:27:43.860Z,18.10
2018-05-11T20:31:46.402Z,18.10
2018-05-11T20:35:48.944Z,18.10
2018-05-11T20:39:51.484Z,18.00
2018-05-11T20:43:54.087Z,18.00
2018-05-11T20:47:57.362Z,17.90
2018-05-11T20:51:59.901Z,17.80
2018-05-11T20:56:02.440Z,17.80
2018-05-11T21:00:04.984Z,17.80
2018-05-11T21:04:07.622Z,17.80
2018-05-11T21:08:11.197Z,17.80
2018-05-11T21:12:13.784Z,17.70
2018-05-11T21:16:16.319Z,17.70
2018-05-11T21:20:19.625Z,17.60
2018-05-11T21:24:22.931Z,17.60
2018-05-11T21:28:26.226Z,17.60
2018-05-11T21:32:29.547Z,17.60
2018-05-11T21:36:32.100Z,17.50
2018-05-11T21:40:34.648Z,17.50
2018-05-11T21:44:37.187Z,17.50
2018-05-11T21:48:40.479Z,17.50
2018-05-11T21:52:43.779Z,17.50
2018-05-11T21:56:46.312Z,17.40
2018-05-11T22:00:48.852Z,17.40
2018-05-11T22:04:51.419Z,17.40
2018-05-11T22:08:53.945Z,17.40
2018-05-11T22:12:58.632Z,17.30
2018-05-11T22:17:01.170Z,17.30
2018-05-11T22:21:03.705Z,17.30
2018-05-11T22:25:06.243Z,17.30
2018-05-11T22:29:08.813Z,17.20
2018-05-11T22:33:12.117Z,17.20
2018-05-11T22:37:14.671Z,17.10
2018-05-11T22:41:17.204Z,17.20
2018-05-11T22:45:19.740Z,17.10
2018-05-11T22:49:22.279Z,17.10
2018-05-11T22:53:24.808Z,17.10
2018-05-11T22:57:27.348Z,17.10
2018-05-11T23:01:29.887Z,17.00
2018-05-11T23:05:32.419Z,17.00
2018-05-11T23:09:35.733Z,17.00
2018-05-11T23:13:38.256Z,16.90
2018-05-11T23:17:40.796Z,16.90
2018-05-11T23:21:43.336Z,16.90
2018-05-11T23:25:46.637Z,16.80
2018-05-11T23:29:49.939Z,16.80
2018-05-11T23:33:53.224Z,16.80
2018-05-11T23:37:55.777Z,16.70
2018-05-11T23:41:58.316Z,16.70
2018-05-11T23:46:00.867Z,16.70
2018-05-11T23:50:03.408Z,16.70
2018-05-11T23:54:05.942Z,16.70
2018-05-11T23:58:08.478Z,16.60
